Companhia, Brazil

12:08 AM BRST on December 08, 2016 (GMT -0200)
Faz. Santa Rita I | | Change Station

Elev 2881 ft 23.01 °S, 46.42 °W | Updated 5 seconds ago

Clear
Clear
63.1 °F
Feels Like 63.1 °F
N
0.0
Wind Variable Wind from North
Gusts 0.0 mph

Today
High -- | Low -- °F
--% Chance of Precip.
Yesterday
High -- | Low -- °F
Precip. -- in
Pressure 29.98 in
Visibility -9999.0 miles
Clouds
Dew Point -9 °F
Humidity 5%
Rainfall in
Snow Depth Not available.
6:11 AM 7:41 PM
First Quarter, 58% visible
METAR SBGR 080200Z 10003KT CAVOK 20/19 Q1015
Pressure 29.98 in
Visibility -9999.0 miles
Clouds
Dew Point -9 °F
Humidity 5%
Rainfall in
Snow Depth Not available.
6:11 AM 7:41 PM
First Quarter, 58% visible
METAR SBGR 080200Z 10003KT CAVOK 20/19 Q1015

10-Day Weather Forecast

No radar image for this location.
×

Almanac

Astronomy

Dec. 08, 2016 Rise Set
Actual Time
Civil Twilight
Nautical Twilight
Astronomical Twilight
Moon
Length of Visible Light
Length of Day
Tomorrow will be .
, % of the Moon is Illuminated

Today's Extremes

Country Highs Country Lows

Community

WunderPhotos

Upload Photos

1,956,259 photos uploaded!

WunderBlog® & News

Nearby

Air Quality

  Air Quality AQ Index Pollutant
Not available.

Snow Depth

Station Depth Elevation

Earthquake Activity

City Distance Mag. Time & Date
Minimum magnitude displayed is 2.5.

Coastal Water Temperatures

Place Temperature

Stations

Nearby Weather Stations

Station Location Temp. Windchill Dew Point Humidity Wind Precip. Elev Updated Type